Time;durP1;ratioP1;P1;durP2;ratioP2;P2;SDS_P1;SDS_P2;PMS_P1;PMS_P2;Temp;Humidity;BMP_temperature;BMP_pressure;BME280_temperature;BME280_humidity;BME280_pressure;Samples;Min_cycle;Max_cycle;Signal;HPM_P1;HPM_P2
2021/07/19 00:02:13;;;;;;;;;;;16.60;70.30;;;;;;5013621;28;19914;-58
2021/07/19 00:04:40;;;;;;;;;;;16.60;70.00;;;;;;5014948;28;19924;-59
2021/07/19 00:07:05;;;;;;;;;;;16.60;70.10;;;;;;5012848;28;20312;-59
2021/07/19 00:09:31;;;;;;;;;;;16.50;70.10;;;;;;5014643;28;19918;-59
2021/07/19 00:11:57;;;;;;;;;;;16.50;70.10;;;;;;5014238;28;20008;-59
2021/07/19 00:14:22;;;;;;;;;;;16.50;70.20;;;;;;5014742;28;19921;-59
2021/07/19 00:16:48;;;;;;;;;;;16.60;70.20;;;;;;5012961;28;19956;-59
2021/07/19 00:19:13;;;;;;;;;;;16.60;70.20;;;;;;5014295;28;19929;-59
2021/07/19 00:21:39;;;;;;;;;;;16.60;70.10;;;;;;5013212;28;20381;-58
2021/07/19 00:24:05;;;;;;;;;;;16.70;70.20;;;;;;5013355;28;19925;-59
2021/07/19 00:26:30;;;;;;;;;;;16.70;70.30;;;;;;5012813;28;20374;-59
2021/07/19 00:28:56;;;;;;;;;;;16.70;70.30;;;;;;5014183;28;19922;-58
2021/07/19 00:31:22;;;;;;;;;;;16.80;70.30;;;;;;5014195;28;19921;-63
2021/07/19 00:33:48;;;;;;;;;;;16.80;70.20;;;;;;5014453;28;19918;-64
2021/07/19 00:36:13;;;;;;;;;;;16.80;70.00;;;;;;5014313;28;20028;-63
2021/07/19 00:38:39;;;;;;;;;;;16.80;70.00;;;;;;5011892;28;20301;-63
2021/07/19 00:41:05;;;;;;;;;;;16.70;69.90;;;;;;5014135;28;19917;-63
2021/07/19 00:43:30;;;;;;;;;;;16.70;69.90;;;;;;5013918;28;19922;-62
2021/07/19 00:45:56;;;;;;;;;;;16.60;69.80;;;;;;5012877;28;19918;-63
2021/07/19 00:48:22;;;;;;;;;;;16.60;70.00;;;;;;5012561;28;19924;-64
2021/07/19 00:50:49;;;;;;;;;;;16.60;70.20;;;;;;5012242;28;19917;-63
2021/07/19 00:53:14;;;;;;;;;;;16.50;70.10;;;;;;5014045;28;20421;-64
2021/07/19 00:55:43;;;;;;;;;;;16.50;70.20;;;;;;5012668;28;19942;-64
2021/07/19 00:58:10;;;;;;;;;;;16.60;70.50;;;;;;5013121;28;19918;-64
2021/07/19 01:00:38;;;;;;;;;;;16.60;70.60;;;;;;5013788;28;19988;-64
2021/07/19 01:03:04;;;;;;;;;;;16.60;70.50;;;;;;5013518;28;20099;-64
2021/07/19 01:05:30;;;;;;;;;;;16.60;70.40;;;;;;5012524;28;19917;-63
2021/07/19 01:07:56;;;;;;;;;;;16.60;70.60;;;;;;5013455;28;20355;-63
2021/07/19 01:10:23;;;;;;;;;;;16.60;71.20;;;;;;5013263;28;19917;-64
2021/07/19 01:12:53;;;;;;;;;;;16.60;70.70;;;;;;5012447;28;19924;-63
2021/07/19 01:15:27;;;;;;;;;;;16.60;70.60;;;;;;5012309;28;20003;-64
2021/07/19 01:17:54;;;;;;;;;;;16.70;70.80;;;;;;5012906;28;20258;-64
2021/07/19 01:20:33;;;;;;;;;;;16.70;70.70;;;;;;5012218;28;19920;-64
2021/07/19 01:23:17;;;;;;;;;;;16.70;70.60;;;;;;5011510;28;19925;-64
2021/07/19 01:25:45;;;;;;;;;;;16.70;70.70;;;;;;5013141;28;19918;-64
2021/07/19 01:28:14;;;;;;;;;;;16.70;70.80;;;;;;5012521;28;20394;-63
2021/07/19 01:30:41;;;;;;;;;;;16.70;70.60;;;;;;5013100;28;20401;-64
2021/07/19 01:33:08;;;;;;;;;;;16.70;70.70;;;;;;5028156;28;19928;-63
2021/07/19 01:35:36;;;;;;;;;;;16.60;70.50;;;;;;5013068;28;20381;-59
2021/07/19 01:38:02;;;;;;;;;;;16.70;70.80;;;;;;5012879;28;19917;-59
2021/07/19 01:40:41;;;;;;;;;;;16.70;70.80;;;;;;5011769;28;19925;-59
2021/07/19 01:43:09;;;;;;;;;;;16.70;70.80;;;;;;4995526;28;19917;-58
2021/07/19 01:45:36;;;;;;;;;;;16.70;70.90;;;;;;5011326;28;19918;-59
2021/07/19 01:48:02;;;;;;;;;;;16.70;70.90;;;;;;5012663;28;20422;-59
2021/07/19 01:50:33;;;;;;;;;;;16.70;70.90;;;;;;5010416;28;19918;-59
2021/07/19 01:53:19;;;;;;;;;;;16.70;70.90;;;;;;5011604;28;20043;-59
2021/07/19 01:55:47;;;;;;;;;;;16.70;70.70;;;;;;5012369;28;19921;-59
2021/07/19 01:58:14;;;;;;;;;;;16.70;70.70;;;;;;5011162;28;19956;-59
2021/07/19 02:00:51;;;;;;;;;;;16.70;70.70;;;;;;5010948;28;19917;-60
2021/07/19 02:03:17;;;;;;;;;;;16.70;70.60;;;;;;5012829;28;20309;-59
2021/07/19 02:05:49;;;;;;;;;;;16.60;70.60;;;;;;5011002;28;19917;-59
2021/07/19 02:08:19;;;;;;;;;;;16.60;70.50;;;;;;5012317;28;19917;-59
2021/07/19 02:11:02;;;;;;;;;;;16.60;70.60;;;;;;5010944;28;19918;-60
2021/07/19 02:13:31;;;;;;;;;;;16.60;70.60;;;;;;5011233;28;19918;-59
2021/07/19 02:15:57;;;;;;;;;;;16.70;70.70;;;;;;5012386;28;20004;-59
2021/07/19 02:18:27;;;;;;;;;;;16.70;70.60;;;;;;5010598;28;19924;-59
2021/07/19 02:20:55;;;;;;;;;;;16.70;70.60;;;;;;5011010;28;19918;-59
2021/07/19 02:23:23;;;;;;;;;;;16.70;70.40;;;;;;5010627;28;20302;-59
2021/07/19 02:26:08;;;;;;;;;;;16.70;70.40;;;;;;5011107;28;19924;-59
2021/07/19 02:28:35;;;;;;;;;;;16.70;70.30;;;;;;5011609;28;19921;-60
2021/07/19 02:31:03;;;;;;;;;;;16.60;70.30;;;;;;4994743;28;19952;-59
2021/07/19 02:33:31;;;;;;;;;;;16.60;70.30;;;;;;5011878;28;19921;-63
2021/07/19 02:35:59;;;;;;;;;;;16.60;70.30;;;;;;5010669;28;19972;-59
2021/07/19 02:38:31;;;;;;;;;;;16.60;70.40;;;;;;5010623;28;19918;-59
2021/07/19 02:41:11;;;;;;;;;;;16.70;70.30;;;;;;5010633;28;19917;-59
2021/07/19 02:43:39;;;;;;;;;;;16.60;70.20;;;;;;5010582;28;19918;-59
2021/07/19 02:46:06;;;;;;;;;;;16.60;70.20;;;;;;5010275;28;19925;-59
2021/07/19 02:48:36;;;;;;;;;;;16.60;70.40;;;;;;5011741;28;19944;-59
2021/07/19 02:51:03;;;;;;;;;;;16.60;70.40;;;;;;5011522;28;20281;-59
2021/07/19 02:53:30;;;;;;;;;;;16.60;70.40;;;;;;5011938;28;19917;-59
2021/07/19 02:55:57;;;;;;;;;;;16.60;70.40;;;;;;5010554;28;19921;-58
2021/07/19 02:58:24;;;;;;;;;;;16.60;70.30;;;;;;5009939;28;19917;-58
2021/07/19 03:00:52;;;;;;;;;;;16.60;70.30;;;;;;5010553;28;19917;-59
2021/07/19 03:03:24;;;;;;;;;;;16.60;70.20;;;;;;5011440;28;19917;-58
2021/07/19 03:05:55;;;;;;;;;;;16.60;70.30;;;;;;5010465;28;19945;-59
2021/07/19 03:08:24;;;;;;;;;;;16.60;70.20;;;;;;5009816;28;20370;-59
2021/07/19 03:11:12;;;;;;;;;;;16.60;70.30;;;;;;5011589;28;19914;-59
2021/07/19 03:13:41;;;;;;;;;;;16.60;70.40;;;;;;5010005;28;19922;-62
2021/07/19 03:16:08;;;;;;;;;;;16.50;70.30;;;;;;5011706;28;19928;-59
2021/07/19 03:18:39;;;;;;;;;;;16.60;70.20;;;;;;5010114;28;19925;-59
2021/07/19 03:21:05;;;;;;;;;;;16.50;70.30;;;;;;5011208;28;20321;-59
2021/07/19 03:23:33;;;;;;;;;;;16.60;70.40;;;;;;5011773;28;19921;-59
2021/07/19 03:26:01;;;;;;;;;;;16.60;70.30;;;;;;5009825;28;20565;-59
2021/07/19 03:28:27;;;;;;;;;;;16.60;70.30;;;;;;5009995;28;20374;-59
2021/07/19 03:31:00;;;;;;;;;;;16.60;70.30;;;;;;5010016;28;19928;-59
2021/07/19 03:33:26;;;;;;;;;;;16.60;70.20;;;;;;5011075;28;19918;-59
2021/07/19 03:35:53;;;;;;;;;;;16.60;70.10;;;;;;5011538;28;19925;-59
2021/07/19 03:38:20;;;;;;;;;;;16.60;70.00;;;;;;5009517;28;20392;-59
2021/07/19 03:41:08;;;;;;;;;;;16.60;70.20;;;;;;5011681;28;19972;-59
2021/07/19 03:43:35;;;;;;;;;;;16.60;70.10;;;;;;5009673;28;19918;-59
2021/07/19 03:46:02;;;;;;;;;;;16.60;70.00;;;;;;5010103;28;20352;-59
2021/07/19 03:48:29;;;;;;;;;;;16.60;69.80;;;;;;5010710;28;19967;-60
2021/07/19 03:50:55;;;;;;;;;;;16.60;69.90;;;;;;5010153;28;20492;-59
2021/07/19 03:53:21;;;;;;;;;;;16.60;69.80;;;;;;5011419;28;20347;-59
2021/07/19 03:55:58;;;;;;;;;;;16.60;69.70;;;;;;5009600;28;19928;-59
2021/07/19 03:58:24;;;;;;;;;;;16.60;69.90;;;;;;5011119;28;19998;-59
2021/07/19 04:00:53;;;;;;;;;;;16.60;70.00;;;;;;5009582;28;19918;-61
2021/07/19 04:03:24;;;;;;;;;;;16.70;70.10;;;;;;5010034;28;19914;-59
2021/07/19 04:05:56;;;;;;;;;;;16.70;70.00;;;;;;5011315;28;20382;-59
2021/07/19 04:08:25;;;;;;;;;;;16.80;69.90;;;;;;5009482;28;19967;-59
2021/07/19 04:10:51;;;;;;;;;;;16.80;69.80;;;;;;5011188;28;19917;-59
2021/07/19 04:13:18;;;;;;;;;;;16.80;69.70;;;;;;5009325;28;19948;-60
2021/07/19 04:15:48;;;;;;;;;;;16.80;69.60;;;;;;5013200;28;19917;-59
2021/07/19 04:18:18;;;;;;;;;;;16.90;69.70;;;;;;5012779;28;19917;-59
2021/07/19 04:20:52;;;;;;;;;;;16.80;69.70;;;;;;5013306;28;19971;-59
2021/07/19 04:23:18;;;;;;;;;;;16.80;69.50;;;;;;5014680;28;19924;-59
2021/07/19 04:25:49;;;;;;;;;;;16.80;69.60;;;;;;5012776;28;19990;-59
2021/07/19 04:28:20;;;;;;;;;;;16.90;69.70;;;;;;5012916;28;19917;-59
2021/07/19 04:30:49;;;;;;;;;;;16.90;69.60;;;;;;5012535;28;20408;-59
2021/07/19 04:33:18;;;;;;;;;;;17.00;69.60;;;;;;5014533;28;20289;-59
2021/07/19 04:35:48;;;;;;;;;;;17.00;69.50;;;;;;5013925;28;19949;-59
2021/07/19 04:38:19;;;;;;;;;;;17.00;69.40;;;;;;5014223;28;19936;-59
2021/07/19 04:40:48;;;;;;;;;;;17.10;69.40;;;;;;5012836;28;19964;-59
2021/07/19 04:43:17;;;;;;;;;;;17.10;69.20;;;;;;5013794;28;20005;-59
2021/07/19 04:45:46;;;;;;;;;;;17.10;68.80;;;;;;5012890;28;19932;-59
2021/07/19 04:48:12;;;;;;;;;;;17.10;68.90;;;;;;5013333;28;19925;-59
2021/07/19 04:50:38;;;;;;;;;;;17.10;68.90;;;;;;5014061;28;20417;-59
2021/07/19 04:53:09;;;;;;;;;;;17.20;68.70;;;;;;5014251;28;19918;-59
2021/07/19 04:55:36;;;;;;;;;;;17.20;68.80;;;;;;5013676;28;19926;-59
2021/07/19 04:58:03;;;;;;;;;;;17.20;68.70;;;;;;5013599;28;20340;-59
2021/07/19 05:00:29;;;;;;;;;;;17.20;68.60;;;;;;5013252;28;19944;-59
2021/07/19 05:02:56;;;;;;;;;;;17.30;68.60;;;;;;5013817;28;20000;-59
2021/07/19 05:05:24;;;;;;;;;;;17.30;68.40;;;;;;5013907;28;20321;-59
2021/07/19 05:07:50;;;;;;;;;;;17.30;68.30;;;;;;5013084;28;19918;-59
2021/07/19 05:10:16;;;;;;;;;;;17.30;68.40;;;;;;5013600;28;19918;-59
2021/07/19 05:12:43;;;;;;;;;;;17.20;68.30;;;;;;5013264;28;19925;-59
2021/07/19 05:15:13;;;;;;;;;;;17.30;68.20;;;;;;5012276;28;19917;-59
2021/07/19 05:17:41;;;;;;;;;;;17.30;68.20;;;;;;5013095;28;20290;-59
2021/07/19 05:20:11;;;;;;;;;;;17.30;68.00;;;;;;5013362;28;20004;-59
2021/07/19 05:22:36;;;;;;;;;;;17.30;68.10;;;;;;5011980;28;19925;-59
2021/07/19 05:25:02;;;;;;;;;;;17.30;67.90;;;;;;5012331;28;19918;-60
2021/07/19 05:27:28;;;;;;;;;;;17.30;67.80;;;;;;5012411;28;19921;-59
2021/07/19 05:29:53;;;;;;;;;;;17.20;67.80;;;;;;5013399;28;20385;-59
2021/07/19 05:32:19;;;;;;;;;;;17.30;67.80;;;;;;5012391;28;19922;-59
2021/07/19 05:34:45;;;;;;;;;;;17.30;67.90;;;;;;5013037;28;19941;-59
2021/07/19 05:37:11;;;;;;;;;;;17.30;67.80;;;;;;5011889;28;20380;-62
2021/07/19 05:39:36;;;;;;;;;;;17.40;67.90;;;;;;5012973;28;19933;-59
2021/07/19 05:42:02;;;;;;;;;;;17.40;67.80;;;;;;5012766;28;19924;-59
2021/07/19 05:44:28;;;;;;;;;;;17.60;67.70;;;;;;5012742;28;19917;-59
2021/07/19 05:46:53;;;;;;;;;;;17.70;67.60;;;;;;5010480;28;19917;-59
2021/07/19 05:49:19;;;;;;;;;;;17.70;67.50;;;;;;5012877;28;19926;-59
2021/07/19 05:51:45;;;;;;;;;;;17.90;67.70;;;;;;5012185;28;19918;-59
2021/07/19 05:54:10;;;;;;;;;;;18.00;67.50;;;;;;5011407;28;20060;-58
2021/07/19 05:56:36;;;;;;;;;;;18.10;67.30;;;;;;5028842;28;19925;-58
2021/07/19 05:59:02;;;;;;;;;;;18.20;67.20;;;;;;5030079;28;19917;-59
2021/07/19 06:01:27;;;;;;;;;;;18.30;66.80;;;;;;5031788;28;19921;-59
2021/07/19 06:03:53;;;;;;;;;;;18.20;66.40;;;;;;5031749;28;19917;-60
2021/07/19 06:06:19;;;;;;;;;;;18.30;66.20;;;;;;5031711;28;20384;-59
2021/07/19 06:08:44;;;;;;;;;;;18.40;66.50;;;;;;5031238;28;19928;-59
2021/07/19 06:11:10;;;;;;;;;;;18.60;66.40;;;;;;5030973;28;20011;-59
2021/07/19 06:13:35;;;;;;;;;;;18.70;65.90;;;;;;5031814;28;19917;-59
2021/07/19 06:16:01;;;;;;;;;;;18.90;65.50;;;;;;5031249;28;19929;-59
2021/07/19 06:18:26;;;;;;;;;;;18.90;64.60;;;;;;5030648;28;20313;-59
2021/07/19 06:20:52;;;;;;;;;;;18.90;64.60;;;;;;5031385;28;20377;-59
2021/07/19 06:23:18;;;;;;;;;;;18.90;64.60;;;;;;5031490;28;20305;-59
2021/07/19 06:25:43;;;;;;;;;;;19.00;64.60;;;;;;5030928;28;19979;-59
2021/07/19 06:28:09;;;;;;;;;;;19.10;64.10;;;;;;5029380;28;19917;-59
2021/07/19 06:30:35;;;;;;;;;;;19.20;63.60;;;;;;5028007;28;19921;-60
2021/07/19 06:33:01;;;;;;;;;;;19.20;63.30;;;;;;5027771;28;20020;-63
2021/07/19 06:35:27;;;;;;;;;;;19.30;63.00;;;;;;5030063;28;19917;-64
2021/07/19 06:37:53;;;;;;;;;;;19.40;63.20;;;;;;5030238;28;19963;-63
2021/07/19 06:40:18;;;;;;;;;;;19.60;63.20;;;;;;5031320;28;19963;-63
2021/07/19 06:42:44;;;;;;;;;;;19.70;62.50;;;;;;5045990;28;19931;-63
2021/07/19 06:45:12;;;;;;;;;;;19.80;62.30;;;;;;5026993;28;19960;-63
2021/07/19 06:47:39;;;;;;;;;;;20.00;62.10;;;;;;5019214;28;20438;-63
2021/07/19 06:50:05;;;;;;;;;;;20.10;61.60;;;;;;5025773;28;19948;-64
2021/07/19 06:52:31;;;;;;;;;;;20.10;61.40;;;;;;5030140;28;19917;-64
2021/07/19 06:54:57;;;;;;;;;;;20.10;60.30;;;;;;5029052;28;19940;-64
2021/07/19 06:57:22;;;;;;;;;;;20.10;60.60;;;;;;5014091;28;19922;-63
2021/07/19 06:59:48;;;;;;;;;;;20.10;60.10;;;;;;5024370;28;19924;-63
2021/07/19 07:02:13;;;;;;;;;;;20.10;60.20;;;;;;5029647;28;20427;-62
2021/07/19 07:04:41;;;;;;;;;;;20.20;60.20;;;;;;5030144;28;19913;-64
2021/07/19 07:07:07;;;;;;;;;;;20.40;60.10;;;;;;5043771;28;19955;-64
2021/07/19 07:09:33;;;;;;;;;;;20.40;59.60;;;;;;5023356;28;19952;-63
2021/07/19 07:11:58;;;;;;;;;;;20.50;59.10;;;;;;5029445;28;20502;-67
2021/07/19 07:14:24;;;;;;;;;;;20.50;59.00;;;;;;5025881;28;19917;-63
2021/07/19 07:16:50;;;;;;;;;;;20.60;58.70;;;;;;5028606;28;19921;-62
2021/07/19 07:19:16;;;;;;;;;;;20.60;58.70;;;;;;5029408;28;19921;-60
2021/07/19 07:21:42;;;;;;;;;;;20.70;58.90;;;;;;5030779;28;19917;-60
2021/07/19 07:24:07;;;;;;;;;;;20.90;58.80;;;;;;5031267;28;19971;-60
2021/07/19 07:26:33;;;;;;;;;;;21.00;57.90;;;;;;5031254;28;19917;-59
2021/07/19 07:28:58;;;;;;;;;;;21.00;56.90;;;;;;5024019;28;19918;-59
2021/07/19 07:31:27;;;;;;;;;;;21.10;57.80;;;;;;5015640;28;20495;-59
2021/07/19 07:33:56;;;;;;;;;;;21.40;57.70;;;;;;5029990;28;20285;-60
2021/07/19 07:36:22;;;;;;;;;;;21.50;56.60;;;;;;5025797;28;19921;-62
2021/07/19 07:38:48;;;;;;;;;;;21.70;56.50;;;;;;5015594;28;19925;-60
2021/07/19 07:41:14;;;;;;;;;;;22.00;56.40;;;;;;5044734;28;19921;-60
2021/07/19 07:43:39;;;;;;;;;;;22.20;55.30;;;;;;5025136;28;19925;-60
2021/07/19 07:46:05;;;;;;;;;;;22.10;54.20;;;;;;5020275;28;20359;-60
2021/07/19 07:48:32;;;;;;;;;;;21.90;53.30;;;;;;5016940;28;19928;-60
2021/07/19 07:50:58;;;;;;;;;;;21.50;53.40;;;;;;5023277;28;19970;-60
2021/07/19 07:53:23;;;;;;;;;;;21.30;53.40;;;;;;5033931;28;20212;-60
2021/07/19 07:55:49;;;;;;;;;;;21.10;53.00;;;;;;5026722;28;19929;-62
2021/07/19 07:58:14;;;;;;;;;;;21.00;53.40;;;;;;5021015;28;19987;-62
2021/07/19 08:00:41;;;;;;;;;;;20.90;53.70;;;;;;5023489;28;19928;-60
2021/07/19 08:03:06;;;;;;;;;;;20.90;53.50;;;;;;5029020;28;19917;-59
2021/07/19 08:05:32;;;;;;;;;;;20.80;53.10;;;;;;5030470;28;20300;-59
2021/07/19 08:07:57;;;;;;;;;;;20.80;53.20;;;;;;5033297;28;19994;-60
2021/07/19 08:10:23;;;;;;;;;;;20.80;53.20;;;;;;5034149;28;20396;-60
2021/07/19 08:12:48;;;;;;;;;;;20.70;53.10;;;;;;5017470;28;19925;-61
2021/07/19 08:15:15;;;;;;;;;;;20.70;53.40;;;;;;5023653;28;19921;-62
2021/07/19 08:17:41;;;;;;;;;;;20.80;53.10;;;;;;5033793;28;20389;-61
2021/07/19 08:20:07;;;;;;;;;;;20.90;53.10;;;;;;5017303;28;19918;-62
2021/07/19 08:22:33;;;;;;;;;;;20.90;53.00;;;;;;5030267;28;19987;-62
2021/07/19 08:24:59;;;;;;;;;;;21.10;52.90;;;;;;5029476;28;19921;-61
2021/07/19 08:27:25;;;;;;;;;;;21.20;53.30;;;;;;5027935;28;19936;-62
2021/07/19 08:29:51;;;;;;;;;;;21.40;52.60;;;;;;5015953;28;19929;-62
2021/07/19 08:32:17;;;;;;;;;;;21.60;52.20;;;;;;5013013;28;19932;-63
2021/07/19 08:34:45;;;;;;;;;;;21.60;52.30;;;;;;5013118;28;19917;-59
2021/07/19 08:37:11;;;;;;;;;;;21.80;52.20;;;;;;5012085;28;19925;-61
2021/07/19 08:39:37;;;;;;;;;;;22.20;52.80;;;;;;5013803;28;19918;-62
2021/07/19 08:42:03;;;;;;;;;;;22.70;52.80;;;;;;5014148;28;20394;-61
2021/07/19 08:44:28;;;;;;;;;;;23.10;51.50;;;;;;5014136;28;19924;-60
2021/07/19 08:46:54;;;;;;;;;;;23.10;50.00;;;;;;5013356;28;19932;-61
2021/07/19 08:49:19;;;;;;;;;;;23.30;50.70;;;;;;5014049;28;19918;-61
2021/07/19 08:51:45;;;;;;;;;;;23.80;50.80;;;;;;5013731;28;19922;-62
2021/07/19 08:54:12;;;;;;;;;;;24.20;50.50;;;;;;5013914;28;19918;-61
2021/07/19 08:56:38;;;;;;;;;;;24.40;48.60;;;;;;5013494;28;19929;-61
2021/07/19 08:59:05;;;;;;;;;;;24.30;48.10;;;;;;5013272;28;19918;-61
2021/07/19 09:01:33;;;;;;;;;;;24.20;47.70;;;;;;5013444;28;20346;-61
2021/07/19 09:03:58;;;;;;;;;;;24.10;47.50;;;;;;5013442;28;20290;-62
2021/07/19 09:06:24;;;;;;;;;;;24.00;47.30;;;;;;5013592;28;19924;-61
2021/07/19 09:08:50;;;;;;;;;;;23.80;46.40;;;;;;5012242;28;20390;-61
2021/07/19 09:11:16;;;;;;;;;;;23.50;47.10;;;;;;5016380;28;19925;-61
2021/07/19 09:14:02;;;;;;;;;;;23.40;47.20;;;;;;5033247;28;19956;-61
2021/07/19 09:16:38;;;;;;;;;;;23.20;46.90;;;;;;5021061;28;20024;-61
2021/07/19 09:19:05;;;;;;;;;;;23.20;47.80;;;;;;5029165;28;20373;-61
2021/07/19 09:21:34;;;;;;;;;;;23.30;47.70;;;;;;5031253;28;20373;-62
2021/07/19 09:24:03;;;;;;;;;;;23.30;47.20;;;;;;5025784;28;19921;-61
2021/07/19 09:26:30;;;;;;;;;;;23.20;46.90;;;;;;5024091;28;20276;-62
2021/07/19 09:28:56;;;;;;;;;;;23.10;46.60;;;;;;5018633;28;19924;-61
2021/07/19 09:31:30;;;;;;;;;;;23.00;46.80;;;;;;5029115;28;19917;-61
2021/07/19 09:33:58;;;;;;;;;;;23.10;46.90;;;;;;5016288;28;20081;-61
2021/07/19 09:36:27;;;;;;;;;;;23.20;46.70;;;;;;5039679;28;20413;-61
2021/07/19 09:39:03;;;;;;;;;;;23.40;46.50;;;;;;5016303;28;19921;-61
2021/07/19 09:41:29;;;;;;;;;;;23.30;46.00;;;;;;5024036;28;19987;-61
2021/07/19 09:43:54;;;;;;;;;;;23.40;46.30;;;;;;5019006;28;20370;-61
2021/07/19 09:46:29;;;;;;;;;;;23.50;46.50;;;;;;5028833;28;19929;-61
2021/07/19 09:48:58;;;;;;;;;;;23.70;46.20;;;;;;5029036;28;19944;-61
2021/07/19 09:51:27;;;;;;;;;;;23.60;45.50;;;;;;5028700;28;20356;-61
2021/07/19 09:53:53;;;;;;;;;;;23.50;45.00;;;;;;5033865;28;19956;-61
2021/07/19 09:56:20;;;;;;;;;;;23.30;45.50;;;;;;5025638;28;19964;-61
2021/07/19 09:58:49;;;;;;;;;;;23.20;45.50;;;;;;5017149;28;20009;-61
2021/07/19 10:01:25;;;;;;;;;;;23.00;45.70;;;;;;5024282;28;19928;-62
2021/07/19 10:04:00;;;;;;;;;;;23.00;45.60;;;;;;5029029;28;19917;-61
2021/07/19 10:06:27;;;;;;;;;;;22.80;45.80;;;;;;5030685;28;20015;-61
2021/07/19 10:08:56;;;;;;;;;;;22.80;46.20;;;;;;5028880;28;20369;-62
2021/07/19 10:11:22;;;;;;;;;;;22.80;46.70;;;;;;5030337;28;19918;-61
2021/07/19 10:13:49;;;;;;;;;;;23.00;46.60;;;;;;5031640;28;19924;-62
2021/07/19 10:16:15;;;;;;;;;;;23.00;46.40;;;;;;5028839;28;19929;-62
2021/07/19 10:18:41;;;;;;;;;;;23.10;46.20;;;;;;5031525;28;19913;-61
2021/07/19 10:21:07;;;;;;;;;;;23.20;45.90;;;;;;5031589;28;19917;-62
2021/07/19 10:23:33;;;;;;;;;;;23.20;45.90;;;;;;5031828;28;19921;-62
2021/07/19 10:25:58;;;;;;;;;;;23.40;45.80;;;;;;5031764;28;20436;-61
2021/07/19 10:28:24;;;;;;;;;;;23.60;46.50;;;;;;5031236;28;20379;-62
2021/07/19 10:30:50;;;;;;;;;;;24.00;46.00;;;;;;5031557;28;19932;-62
2021/07/19 10:33:15;;;;;;;;;;;24.20;45.60;;;;;;5028158;28;19917;-62
2021/07/19 10:35:42;;;;;;;;;;;24.70;45.60;;;;;;5030425;28;20059;-61
2021/07/19 10:38:14;;;;;;;;;;;24.90;44.70;;;;;;5030942;28;19921;-62
2021/07/19 10:40:40;;;;;;;;;;;25.00;43.50;;;;;;5026050;28;19917;-62
2021/07/19 10:43:09;;;;;;;;;;;24.90;43.70;;;;;;5030036;28;20240;-62
2021/07/19 10:45:44;;;;;;;;;;;25.30;44.70;;;;;;5019574;28;20293;-62
2021/07/19 10:48:09;;;;;;;;;;;26.00;44.40;;;;;;5021035;28;19924;-62
2021/07/19 10:50:39;;;;;;;;;;;26.60;44.00;;;;;;5030158;28;19917;-62
2021/07/19 10:53:14;;;;;;;;;;;26.80;42.70;;;;;;5030590;28;20024;-62
2021/07/19 10:55:40;;;;;;;;;;;26.60;42.00;;;;;;5020120;28;19924;-62
2021/07/19 10:58:06;;;;;;;;;;;26.20;40.70;;;;;;5030244;28;19921;-61
2021/07/19 11:00:39;;;;;;;;;;;25.60;40.70;;;;;;5031037;28;19917;-62
2021/07/19 11:03:05;;;;;;;;;;;25.10;41.30;;;;;;5029573;28;19972;-62
2021/07/19 11:05:35;;;;;;;;;;;25.20;42.80;;;;;;5026330;28;19936;-62
2021/07/19 11:08:01;;;;;;;;;;;25.70;43.10;;;;;;5030086;28;19952;-63
2021/07/19 11:10:27;;;;;;;;;;;25.90;41.90;;;;;;5030549;28;19989;-62
2021/07/19 11:12:53;;;;;;;;;;;25.90;41.90;;;;;;5029245;28;19917;-62
2021/07/19 11:15:21;;;;;;;;;;;25.80;41.00;;;;;;5029625;28;19917;-62
2021/07/19 11:17:49;;;;;;;;;;;25.40;41.10;;;;;;5030455;28;20382;-61
2021/07/19 11:20:15;;;;;;;;;;;24.90;41.20;;;;;;5029886;28;20519;-61
2021/07/19 11:22:41;;;;;;;;;;;24.50;41.60;;;;;;5030858;28;19924;-62
2021/07/19 11:25:08;;;;;;;;;;;24.00;42.20;;;;;;5032907;28;19918;-62
2021/07/19 11:27:38;;;;;;;;;;;23.50;42.60;;;;;;5034846;28;19932;-62
2021/07/19 11:30:08;;;;;;;;;;;23.10;43.40;;;;;;5035291;28;19917;-61
2021/07/19 11:32:34;;;;;;;;;;;22.70;44.00;;;;;;5035253;28;19921;-61
2021/07/19 11:35:04;;;;;;;;;;;22.30;44.80;;;;;;5034766;28;19952;-62
2021/07/19 11:37:34;;;;;;;;;;;22.10;45.30;;;;;;5034822;28;20336;-61
2021/07/19 11:40:00;;;;;;;;;;;22.00;45.90;;;;;;5034881;28;19917;-62
2021/07/19 11:42:27;;;;;;;;;;;21.80;46.80;;;;;;5033675;28;20409;-61
2021/07/19 11:44:59;;;;;;;;;;;21.80;46.90;;;;;;5033945;28;19992;-61
2021/07/19 11:47:25;;;;;;;;;;;21.90;47.90;;;;;;5034672;28;19924;-62
2021/07/19 11:49:58;;;;;;;;;;;22.20;48.60;;;;;;5035101;28;19918;-62
2021/07/19 11:52:24;;;;;;;;;;;22.50;48.30;;;;;;5034551;28;19929;-61
2021/07/19 11:54:50;;;;;;;;;;;22.70;47.80;;;;;;5034913;28;19917;-61
2021/07/19 11:57:16;;;;;;;;;;;22.80;47.90;;;;;;5027775;28;19928;-62
2021/07/19 11:59:41;;;;;;;;;;;22.90;47.50;;;;;;5034302;28;19917;-62
2021/07/19 12:02:07;;;;;;;;;;;22.90;47.90;;;;;;5032918;28;20388;-61
2021/07/19 12:04:36;;;;;;;;;;;23.10;48.30;;;;;;5033249;28;19923;-62
2021/07/19 12:07:02;;;;;;;;;;;23.30;48.10;;;;;;5033771;28;19971;-62
2021/07/19 12:09:28;;;;;;;;;;;23.50;48.20;;;;;;5034444;28;19920;-62
2021/07/19 12:11:54;;;;;;;;;;;23.70;47.80;;;;;;5034123;28;19923;-62
2021/07/19 12:14:19;;;;;;;;;;;23.90;47.60;;;;;;5034523;28;19917;-61
2021/07/19 12:16:45;;;;;;;;;;;24.10;47.80;;;;;;5033697;28;19921;-62
2021/07/19 12:19:17;;;;;;;;;;;24.30;47.10;;;;;;5034084;28;20016;-62
2021/07/19 12:21:47;;;;;;;;;;;24.40;46.60;;;;;;5034492;28;20004;-61
2021/07/19 12:24:14;;;;;;;;;;;24.50;46.80;;;;;;5033775;28;20012;-62
2021/07/19 12:26:48;;;;;;;;;;;24.70;46.00;;;;;;5032658;28;20294;-61
2021/07/19 12:29:41;;;;;;;;;;;24.60;45.60;;;;;;5033831;28;19924;-62
2021/07/19 12:32:07;;;;;;;;;;;24.70;45.10;;;;;;5050243;22;19928;-60
2021/07/19 12:34:34;;;;;;;;;;;24.60;44.90;;;;;;5051080;28;20352;-60
2021/07/19 12:37:04;;;;;;;;;;;24.70;45.20;;;;;;5053590;28;19921;-60
2021/07/19 12:39:31;;;;;;;;;;;24.50;44.60;;;;;;5053232;28;20327;-60
2021/07/19 12:41:57;;;;;;;;;;;24.40;44.80;;;;;;5053987;28;19966;-60
2021/07/19 12:44:24;;;;;;;;;;;24.30;45.00;;;;;;5033899;28;19921;-60
2021/07/19 12:46:52;;;;;;;;;;;24.30;45.30;;;;;;5033243;28;20401;-60
2021/07/19 12:49:24;;;;;;;;;;;24.10;44.80;;;;;;5033612;28;19917;-60
2021/07/19 12:51:55;;;;;;;;;;;23.90;45.10;;;;;;5033002;28;19932;-60
2021/07/19 12:54:21;;;;;;;;;;;23.60;45.50;;;;;;5033251;28;19924;-60
2021/07/19 12:56:49;;;;;;;;;;;23.40;45.80;;;;;;5032228;28;19925;-60
2021/07/19 12:59:14;;;;;;;;;;;23.10;46.10;;;;;;5015690;28;19933;-60
2021/07/19 13:01:41;;;;;;;;;;;22.80;46.10;;;;;;5032386;28;19917;-60
2021/07/19 13:04:08;;;;;;;;;;;22.40;46.70;;;;;;5033200;28;19946;-64
2021/07/19 13:06:34;;;;;;;;;;;22.10;47.20;;;;;;5033448;28;19932;-65
2021/07/19 13:09:00;;;;;;;;;;;21.90;47.60;;;;;;5014888;28;19924;-64
2021/07/19 13:11:33;;;;;;;;;;;21.80;48.30;;;;;;5033360;28;19992;-64
2021/07/19 13:14:13;;;;;;;;;;;21.80;48.70;;;;;;5033318;28;20328;-65
2021/07/19 13:16:38;;;;;;;;;;;22.00;48.60;;;;;;5032574;28;19979;-65
2021/07/19 13:19:04;;;;;;;;;;;22.10;48.60;;;;;;5033000;28;19917;-64
2021/07/19 13:21:30;;;;;;;;;;;22.20;48.90;;;;;;5032826;28;19917;-65
2021/07/19 13:23:55;;;;;;;;;;;22.50;49.00;;;;;;5032910;28;19959;-65
2021/07/19 13:26:21;;;;;;;;;;;22.90;48.60;;;;;;5033056;28;19917;-66
2021/07/19 13:28:47;;;;;;;;;;;23.10;47.80;;;;;;5032278;28;20016;-65
2021/07/19 13:31:12;;;;;;;;;;;23.00;47.40;;;;;;5033052;28;20383;-65
2021/07/19 13:33:45;;;;;;;;;;;22.80;47.40;;;;;;5032655;28;19925;-65
2021/07/19 13:36:11;;;;;;;;;;;22.60;47.50;;;;;;5032447;28;19945;-65
2021/07/19 13:38:40;;;;;;;;;;;22.40;48.00;;;;;;5032527;28;19948;-60
2021/07/19 13:41:06;;;;;;;;;;;22.10;48.10;;;;;;5032245;28;19927;-60
2021/07/19 13:43:37;;;;;;;;;;;22.00;48.60;;;;;;5015411;28;19917;-60
2021/07/19 13:46:03;;;;;;;;;;;22.00;48.60;;;;;;5031668;28;19941;-61
2021/07/19 13:48:29;;;;;;;;;;;22.00;48.90;;;;;;5031980;28;19924;-60
2021/07/19 13:50:54;;;;;;;;;;;22.20;49.30;;;;;;5032510;28;19967;-60
2021/07/19 13:53:20;;;;;;;;;;;22.30;48.80;;;;;;5014336;28;19921;-60
2021/07/19 13:55:59;;;;;;;;;;;22.50;48.60;;;;;;5032501;28;20016;-60
2021/07/19 13:58:26;;;;;;;;;;;22.70;48.70;;;;;;5031570;28;19932;-60
2021/07/19 14:00:52;;;;;;;;;;;22.80;48.10;;;;;;5031197;28;19971;-60
2021/07/19 14:03:18;;;;;;;;;;;22.80;47.70;;;;;;5030592;28;19920;-60
2021/07/19 14:05:44;;;;;;;;;;;22.50;46.90;;;;;;5032157;28;19917;-60
2021/07/19 14:08:12;;;;;;;;;;;22.20;47.40;;;;;;5031878;28;20426;-60
2021/07/19 14:10:39;;;;;;;;;;;22.00;47.90;;;;;;5031603;28;19949;-60
2021/07/19 14:13:05;;;;;;;;;;;21.80;48.30;;;;;;5032208;28;19917;-60
2021/07/19 14:15:31;;;;;;;;;;;21.70;48.60;;;;;;5032224;28;19917;-60
2021/07/19 14:17:56;;;;;;;;;;;21.70;48.80;;;;;;5030941;28;19928;-60
2021/07/19 14:20:23;;;;;;;;;;;21.70;49.20;;;;;;5032035;28;20440;-60